Terminal Aerodrome Forecast
Issued by NWS Paducah, KY

Home | Current Version | Previous Version | Text Only | Print | Product List | Glossary Off
Versions: 1 2 3 4 5 6 7 8 9 10 11 12 13 14

000
FTUS43 KPAH 232000 AAA
TAFPAH
TAF AMD
KPAH 232043Z 2321/2418 33006KT P6SM SCT025 BKN050
      TEMPO 2321/2324 5SM HZ
     FM240000 35004KT P6SM SCT025
     FM241500 02009KT P6SM SCT035=

USA.gov is the U.S. government's official web portal to all federal, state and local government web resources and services.